EAF1 LBWN-LBSF

Flight info

Callsign EAF1
Flight time 0h 44m
Altitude 26000
Route DICXA N605 GOL
Aircraft A320/M-SDE3FGHIRWY/LB1

Departure

Time 2026-04-29 22:49
Airport Varna Airport (LBWN)

Arrival

Time 2026-04-29 23:34
Airport Sofia Airport (LBSF)
Time Latitude Longitude Altitude Speed Heading
2026-04-29 22:29 43.23535 27.82323 230 ft 0 kts 41°
2026-04-29 22:45 43.23536 27.82324 229 ft 1 kts 41°
2026-04-29 22:46 43.23566 27.82364 229 ft 15 kts 47°
2026-04-29 22:46 43.23533 27.82446 229 ft 16 kts 202°
2026-04-29 22:46 43.23481 27.82291 229 ft 21 kts 261°
2026-04-29 22:46 43.23489 27.82062 228 ft 28 kts 272°
2026-04-29 22:47 43.23514 27.81781 229 ft 29 kts 276°
2026-04-29 22:47 43.23540 27.81487 225 ft 33 kts 276°
2026-04-29 22:47 43.23567 27.81167 224 ft 28 kts 274°
2026-04-29 22:47 43.23569 27.80989 224 ft 17 kts 252°
2026-04-29 22:48 43.23464 27.80928 223 ft 19 kts 158°
2026-04-29 22:48 43.23342 27.81042 222 ft 23 kts 127°
2026-04-29 22:48 43.23312 27.81244 223 ft 22 kts 92°
2026-04-29 22:48 43.23284 27.81506 225 ft 39 kts 97°
2026-04-29 22:49 43.23218 27.82261 230 ft 118 kts 96°
2026-04-29 22:49 43.23110 27.83554 701 ft 140 kts 97°
2026-04-29 22:49 43.22996 27.84888 1586 ft 145 kts 98°
2026-04-29 22:49 43.22868 27.86294 2366 ft 158 kts 99°
2026-04-29 22:50 43.22705 27.87918 2875 ft 186 kts 105°
2026-04-29 22:50 43.21951 27.89434 3530 ft 208 kts 149°
2026-04-29 22:50 43.20492 27.89857 4323 ft 230 kts 188°
2026-04-29 22:50 43.18943 27.89025 5234 ft 248 kts 209°
2026-04-29 22:51 43.17374 27.87859 5855 ft 263 kts 211°
2026-04-29 22:51 43.15788 27.86621 6021 ft 263 kts 211°
2026-04-29 22:51 43.12581 27.84186 6024 ft 264 kts 210°
2026-04-29 22:52 43.10971 27.82988 6029 ft 264 kts 210°
2026-04-29 22:52 43.09358 27.81783 6052 ft 264 kts 210°
2026-04-29 22:52 43.07912 27.80272 5997 ft 258 kts 232°
2026-04-29 22:52 43.07090 27.78076 6039 ft 266 kts 257°
2026-04-29 22:53 43.07042 27.75609 7159 ft 261 kts 277°
2026-04-29 22:53 43.07285 27.73128 8449 ft 263 kts 277°
2026-04-29 22:53 43.07486 27.70638 9775 ft 263 kts 276°
2026-04-29 22:53 43.07675 27.68146 10949 ft 264 kts 277°
2026-04-29 22:54 43.07870 27.65653 12154 ft 263 kts 277°
2026-04-29 22:54 43.08070 27.63153 13276 ft 266 kts 278°
2026-04-29 22:54 43.08298 27.60640 14413 ft 265 kts 279°
2026-04-29 22:54 43.08538 27.58151 15380 ft 268 kts 279°
2026-04-29 22:55 43.08775 27.55603 16323 ft 273 kts 278°
2026-04-29 22:55 43.09003 27.53004 17244 ft 277 kts 278°
2026-04-29 22:55 43.09230 27.50359 18149 ft 282 kts 278°
2026-04-29 22:55 43.09465 27.47676 19017 ft 286 kts 278°
2026-04-29 22:56 43.09706 27.44948 19836 ft 290 kts 278°
2026-04-29 22:56 43.09949 27.42194 20712 ft 293 kts 278°
2026-04-29 22:56 43.10179 27.39400 21483 ft 298 kts 277°
2026-04-29 22:56 43.10546 27.36496 21672 ft 321 kts 285°
2026-04-29 22:57 43.11372 27.33556 21984 ft 338 kts 295°
2026-04-29 22:57 43.12408 27.30626 22713 ft 344 kts 294°
2026-04-29 22:57 43.13390 27.27638 23539 ft 347 kts 292°
2026-04-29 22:57 43.14361 27.24524 23862 ft 362 kts 291°
2026-04-29 22:58 43.15341 27.21320 24466 ft 365 kts 291°
2026-04-29 22:58 43.16327 27.18089 24573 ft 382 kts 292°
2026-04-29 22:58 43.17393 27.14689 24904 ft 389 kts 292°
2026-04-29 22:58 43.18469 27.11357 25763 ft 380 kts 292°
2026-04-29 22:59 43.19496 27.08056 26110 ft 374 kts 289°
2026-04-29 22:59 43.20149 27.04577 26198 ft 380 kts 278°
2026-04-29 22:59 43.20216 27.00945 26196 ft 384 kts 268°
2026-04-29 22:59 43.19946 26.97293 25995 ft 385 kts 267°
2026-04-29 23:00 43.19753 26.93653 26127 ft 384 kts 268°
2026-04-29 23:00 43.19624 26.89997 26175 ft 384 kts 269°
2026-04-29 23:00 43.19521 26.86340 26172 ft 384 kts 269°
2026-04-29 23:00 43.19418 26.82688 26163 ft 384 kts 269°
2026-04-29 23:01 43.19300 26.79038 26161 ft 384 kts 268°
2026-04-29 23:01 43.19213 26.76619 26175 ft 383 kts 269°
2026-04-29 23:01 43.19074 26.72983 26175 ft 382 kts 268°
2026-04-29 23:01 43.18929 26.69352 26174 ft 381 kts 268°
2026-04-29 23:02 43.18780 26.65728 26166 ft 381 kts 268°
2026-04-29 23:02 43.18636 26.62102 26162 ft 380 kts 269°
2026-04-29 23:02 43.18520 26.58484 26154 ft 380 kts 269°
2026-04-29 23:02 43.18423 26.54866 26148 ft 380 kts 269°
2026-04-29 23:03 43.18331 26.51248 26123 ft 380 kts 269°
2026-04-29 23:03 43.18238 26.47619 26124 ft 380 kts 269°
2026-04-29 23:03 43.18138 26.44005 26120 ft 380 kts 269°
2026-04-29 23:03 43.18033 26.40374 26122 ft 381 kts 269°
2026-04-29 23:04 43.17929 26.36802 26127 ft 381 kts 269°
2026-04-29 23:04 43.17823 26.33168 26130 ft 381 kts 269°
2026-04-29 23:04 43.17714 26.29543 26131 ft 381 kts 269°
2026-04-29 23:04 43.17601 26.25912 26128 ft 381 kts 269°
2026-04-29 23:05 43.17485 26.22284 26127 ft 381 kts 269°
2026-04-29 23:05 43.17367 26.18654 26130 ft 381 kts 269°
2026-04-29 23:05 43.17247 26.15017 26134 ft 381 kts 269°
2026-04-29 23:05 43.17115 26.11383 26135 ft 381 kts 268°
2026-04-29 23:06 43.16965 26.07754 26141 ft 382 kts 268°
2026-04-29 23:06 43.16806 26.04125 26142 ft 382 kts 268°
2026-04-29 23:06 43.16646 26.00539 26146 ft 382 kts 268°
2026-04-29 23:06 43.16483 25.96911 26154 ft 382 kts 268°
2026-04-29 23:07 43.16319 25.93285 26164 ft 381 kts 268°
2026-04-29 23:07 43.16156 25.89659 26179 ft 381 kts 268°
2026-04-29 23:07 43.15993 25.86038 26169 ft 380 kts 268°
2026-04-29 23:07 43.15828 25.82423 26105 ft 379 kts 268°
2026-04-29 23:08 43.15665 25.78834 25827 ft 377 kts 268°
2026-04-29 23:08 43.15504 25.75246 25581 ft 377 kts 268°
2026-04-29 23:08 43.15344 25.71669 25337 ft 375 kts 268°
2026-04-29 23:08 43.15197 25.68109 25097 ft 374 kts 269°
2026-04-29 23:09 43.15076 25.64552 24856 ft 373 kts 269°
2026-04-29 23:09 43.14966 25.61000 24583 ft 372 kts 269°
2026-04-29 23:09 43.14857 25.57471 24230 ft 370 kts 269°
2026-04-29 23:09 43.14744 25.53953 23887 ft 369 kts 269°
2026-04-29 23:10 43.14630 25.50445 23487 ft 367 kts 269°
2026-04-29 23:10 43.14516 25.47004 23075 ft 366 kts 269°
2026-04-29 23:10 43.14397 25.43535 22665 ft 364 kts 269°
2026-04-29 23:10 43.14274 25.40081 22257 ft 362 kts 269°
2026-04-29 23:11 43.14151 25.36647 21854 ft 360 kts 269°
2026-04-29 23:11 43.14028 25.33230 21460 ft 358 kts 269°
2026-04-29 23:11 43.13905 25.29823 21053 ft 357 kts 268°
2026-04-29 23:11 43.13781 25.26444 20680 ft 355 kts 268°
2026-04-29 23:12 43.13656 25.23079 20309 ft 353 kts 268°
2026-04-29 23:12 43.13530 25.19717 19934 ft 352 kts 268°
2026-04-29 23:12 43.13408 25.16418 19571 ft 350 kts 268°
2026-04-29 23:12 43.13288 25.13091 19214 ft 349 kts 268°
2026-04-29 23:13 43.13171 25.09794 18867 ft 345 kts 268°
2026-04-29 23:13 43.13052 25.06516 18611 ft 345 kts 268°
2026-04-29 23:13 43.12656 25.03277 18336 ft 347 kts 254°
2026-04-29 23:13 43.11676 25.00245 18036 ft 349 kts 248°
2026-04-29 23:14 43.10633 24.97254 17738 ft 347 kts 248°
2026-04-29 23:14 43.09603 24.94342 17528 ft 330 kts 248°
2026-04-29 23:14 43.08619 24.91581 17202 ft 318 kts 248°
2026-04-29 23:14 43.07662 24.88880 16681 ft 313 kts 248°
2026-04-29 23:15 43.06725 24.86229 16353 ft 304 kts 248°
2026-04-29 23:15 43.05817 24.83656 15932 ft 298 kts 248°
2026-04-29 23:15 43.04928 24.81136 15688 ft 289 kts 247°
2026-04-29 23:15 43.04062 24.78687 15258 ft 286 kts 247°
2026-04-29 23:16 43.03195 24.76224 14759 ft 287 kts 247°
2026-04-29 23:16 43.02329 24.73765 14312 ft 286 kts 246°
2026-04-29 23:16 43.01465 24.71327 13866 ft 284 kts 246°
2026-04-29 23:16 43.00603 24.68901 13362 ft 283 kts 246°
2026-04-29 23:17 42.99744 24.66486 12873 ft 282 kts 245°
2026-04-29 23:17 42.98900 24.64111 12388 ft 281 kts 245°
2026-04-29 23:17 42.98044 24.61704 11899 ft 281 kts 244°
2026-04-29 23:17 42.97194 24.59308 11431 ft 280 kts 244°
2026-04-29 23:18 42.96344 24.56918 10983 ft 279 kts 243°
2026-04-29 23:18 42.95493 24.54533 10542 ft 279 kts 243°
2026-04-29 23:18 42.94644 24.52158 10165 ft 276 kts 243°
2026-04-29 23:18 42.93817 24.49841 9882 ft 269 kts 243°
2026-04-29 23:19 42.93001 24.47559 9480 ft 266 kts 242°
2026-04-29 23:19 42.92189 24.45288 9085 ft 265 kts 243°
2026-04-29 23:19 42.91383 24.43039 8628 ft 264 kts 243°
2026-04-29 23:19 42.90571 24.40777 8124 ft 266 kts 243°
2026-04-29 23:20 42.89755 24.38492 7665 ft 267 kts 243°
2026-04-29 23:20 42.88941 24.36223 7362 ft 262 kts 243°
2026-04-29 23:20 42.88162 24.34055 7229 ft 253 kts 243°
2026-04-29 23:20 42.87398 24.31935 7045 ft 247 kts 243°
2026-04-29 23:21 42.86645 24.29850 6791 ft 243 kts 243°
2026-04-29 23:21 42.85898 24.27785 6485 ft 243 kts 243°
2026-04-29 23:21 42.85138 24.25678 6356 ft 258 kts 243°
2026-04-29 23:21 42.84334 24.23443 6228 ft 265 kts 244°
2026-04-29 23:22 42.83516 24.21178 6095 ft 267 kts 244°
2026-04-29 23:22 42.82695 24.18908 5992 ft 267 kts 244°
2026-04-29 23:22 42.81872 24.16636 5996 ft 268 kts 244°
2026-04-29 23:22 42.81047 24.14354 5998 ft 268 kts 244°
2026-04-29 23:23 42.80230 24.12100 5995 ft 259 kts 244°
2026-04-29 23:23 42.79457 24.09968 5998 ft 244 kts 244°
2026-04-29 23:23 42.78729 24.07960 5997 ft 228 kts 244°
2026-04-29 23:23 42.78050 24.06088 5996 ft 212 kts 242°
2026-04-29 23:24 42.77420 24.04346 5989 ft 199 kts 241°
2026-04-29 23:24 42.76796 24.02624 6001 ft 209 kts 242°
2026-04-29 23:24 42.76142 24.00828 6091 ft 214 kts 244°
2026-04-29 23:24 42.75507 23.99082 7195 ft 201 kts 244°
2026-04-29 23:25 42.74872 23.97332 7281 ft 216 kts 244°
2026-04-29 23:25 42.74200 23.95480 7189 ft 219 kts 244°
2026-04-29 23:25 42.73522 23.93618 7063 ft 218 kts 244°
2026-04-29 23:25 42.72860 23.91807 6930 ft 211 kts 243°
2026-04-29 23:26 42.72218 23.90049 6805 ft 203 kts 243°
2026-04-29 23:26 42.71595 23.88344 6688 ft 200 kts 243°
2026-04-29 23:26 42.70977 23.86655 6571 ft 198 kts 243°
2026-04-29 23:26 42.70390 23.85047 6526 ft 183 kts 243°
2026-04-29 23:27 42.69831 23.83522 6459 ft 179 kts 243°
2026-04-29 23:27 42.69278 23.82016 6379 ft 178 kts 243°
2026-04-29 23:27 42.68728 23.80510 6294 ft 178 kts 243°
2026-04-29 23:27 42.68184 23.79025 6221 ft 179 kts 243°
2026-04-29 23:28 42.67731 23.77462 6136 ft 177 kts 255°
2026-04-29 23:28 42.67625 23.75786 6053 ft 178 kts 268°
2026-04-29 23:28 42.67671 23.74103 5990 ft 178 kts 272°
2026-04-29 23:28 42.67758 23.72416 5859 ft 179 kts 273°
2026-04-29 23:29 42.67859 23.70726 5645 ft 180 kts 274°
2026-04-29 23:29 42.67963 23.69035 5418 ft 179 kts 274°
2026-04-29 23:29 42.68069 23.67340 5181 ft 180 kts 274°
2026-04-29 23:29 42.68177 23.65605 4942 ft 189 kts 275°
2026-04-29 23:30 42.68289 23.63814 4676 ft 191 kts 275°
2026-04-29 23:30 42.68402 23.62008 4413 ft 191 kts 276°
2026-04-29 23:30 42.68512 23.60229 4157 ft 190 kts 276°
2026-04-29 23:30 42.68623 23.58440 3895 ft 189 kts 276°
2026-04-29 23:31 42.68733 23.56658 3617 ft 188 kts 277°
2026-04-29 23:31 42.68838 23.54950 3353 ft 175 kts 275°
2026-04-29 23:31 42.68936 23.53368 3124 ft 160 kts 275°
2026-04-29 23:31 42.69021 23.51979 2931 ft 137 kts 276°
2026-04-29 23:32 42.69097 23.50735 2768 ft 128 kts 276°
2026-04-29 23:32 42.69170 23.49539 2606 ft 126 kts 276°
2026-04-29 23:32 42.69242 23.48362 2444 ft 125 kts 276°
2026-04-29 23:32 42.69314 23.47190 2282 ft 125 kts 276°
2026-04-29 23:33 42.69384 23.46033 2117 ft 124 kts 277°
2026-04-29 23:33 42.69455 23.44865 1954 ft 124 kts 276°
2026-04-29 23:33 42.69526 23.43694 1771 ft 124 kts 276°
2026-04-29 23:33 42.69585 23.42699 1750 ft 82 kts 274°
2026-04-29 23:34 42.69628 23.42110 1751 ft 52 kts 275°
2026-04-29 23:34 42.69617 23.41704 1744 ft 32 kts 247°
2026-04-29 23:34 42.69537 23.41428 1748 ft 29 kts 242°
2026-04-29 23:34 42.69493 23.41303 1741 ft 5 kts 245°
2026-04-29 23:35 42.69475 23.41240 1747 ft 9 kts 240°
2026-04-29 23:35 42.69427 23.41176 1746 ft 9 kts 186°
2026-04-29 23:35 42.69347 23.41180 1750 ft 13 kts 185°
2026-04-29 23:35 42.69263 23.41157 1750 ft 7 kts 190°
2026-04-29 23:36 42.69207 23.41139 1750 ft 9 kts 194°
2026-04-29 23:36 42.69137 23.41106 1750 ft 13 kts 217°
2026-04-29 23:36 42.69102 23.40978 1745 ft 16 kts 254°
2026-04-29 23:36 42.69066 23.40880 1747 ft 5 kts 201°
2026-04-29 23:37 42.69044 23.40896 1746 ft 5 kts 146°
2026-04-29 23:37 42.69004 23.40917 1743 ft 5 kts 162°
2026-04-29 23:37 42.68987 23.40925 1748 ft 0 kts 162°